createdAt,value
2019-02-20T00:01:19.199Z,1.77
2019-02-20T00:03:49.433Z,2.10
2019-02-20T00:06:19.309Z,1.53
2019-02-20T00:08:50.280Z,1.47
2019-02-20T00:11:20.353Z,1.83
2019-02-20T00:13:50.937Z,1.50
2019-02-20T00:16:21.529Z,1.50
2019-02-20T00:18:51.270Z,1.27
2019-02-20T00:21:21.298Z,1.60
2019-02-20T00:23:51.128Z,1.40
2019-02-20T00:26:21.562Z,1.80
2019-02-20T00:28:53.481Z,2.10
2019-02-20T00:31:23.392Z,1.20
2019-02-20T00:33:53.921Z,1.73
2019-02-20T00:36:24.476Z,1.47
2019-02-20T00:38:54.691Z,1.50
2019-02-20T00:41:25.149Z,1.43
2019-02-20T00:44:10.485Z,1.60
2019-02-20T00:46:59.041Z,1.30
2019-02-20T00:49:36.132Z,1.40
2019-02-20T00:52:25.269Z,1.40
2019-02-20T00:54:55.038Z,1.50
2019-02-20T00:57:24.761Z,1.37
2019-02-20T00:59:55.125Z,1.73
2019-02-20T01:02:25.292Z,1.50
2019-02-20T01:04:56.437Z,1.50
2019-02-20T01:07:26.329Z,1.60
2019-02-20T01:09:56.030Z,1.33
2019-02-20T01:12:26.389Z,1.40
2019-02-20T01:14:57.408Z,1.77
2019-02-20T01:17:27.217Z,1.37
2019-02-20T01:19:56.897Z,1.40
2019-02-20T01:22:28.280Z,1.33
2019-02-20T01:24:58.273Z,1.40
2019-02-20T01:27:27.861Z,1.80
2019-02-20T01:29:58.268Z,1.33
2019-02-20T01:32:29.379Z,1.37
2019-02-20T01:34:59.238Z,1.80
2019-02-20T01:37:29.061Z,1.20
2019-02-20T01:39:59.422Z,1.20
2019-02-20T01:42:29.533Z,1.40
2019-02-20T01:44:59.521Z,1.77
2019-02-20T01:47:29.841Z,1.40
2019-02-20T01:49:59.548Z,1.63
2019-02-20T01:52:31.256Z,1.23
2019-02-20T01:55:02.565Z,1.30
2019-02-20T01:57:33.182Z,1.40
2019-02-20T02:00:04.243Z,1.40
2019-02-20T02:02:34.709Z,1.47
2019-02-20T02:05:04.424Z,1.87
2019-02-20T02:07:34.316Z,1.53
2019-02-20T02:10:03.832Z,1.57
2019-02-20T02:12:33.608Z,1.40
2019-02-20T02:15:03.331Z,1.77
2019-02-20T02:17:33.278Z,1.70
2019-02-20T02:20:03.839Z,1.70
2019-02-20T02:22:34.229Z,1.97
2019-02-20T02:25:04.194Z,2.10
2019-02-20T02:27:34.135Z,1.80
2019-02-20T02:30:05.709Z,2.00
2019-02-20T02:32:35.616Z,1.90
2019-02-20T02:35:05.969Z,1.67
2019-02-20T02:37:36.677Z,1.77
2019-02-20T02:40:07.433Z,1.60
2019-02-20T02:42:37.898Z,1.33
2019-02-20T02:45:08.875Z,1.77
2019-02-20T02:47:39.325Z,1.70
2019-02-20T02:50:09.752Z,1.37
2019-02-20T02:52:40.086Z,1.50
2019-02-20T02:55:12.179Z,1.33
2019-02-20T02:57:42.491Z,1.73
2019-02-20T03:00:13.521Z,1.20
2019-02-20T03:02:43.459Z,1.27
2019-02-20T03:05:14.458Z,1.50
2019-02-20T03:07:45.169Z,1.30
2019-02-20T03:10:15.779Z,1.30
2019-02-20T03:12:46.392Z,2.03
2019-02-20T03:15:17.749Z,1.50
2019-02-20T03:17:50.064Z,1.43
2019-02-20T03:20:21.493Z,1.33
2019-02-20T03:22:51.388Z,0.73
2019-02-20T03:25:21.374Z,1.00
2019-02-20T03:27:51.835Z,0.90
2019-02-20T03:30:21.561Z,1.50
2019-02-20T03:32:51.555Z,0.90
2019-02-20T03:35:22.012Z,1.20
2019-02-20T03:37:52.345Z,1.47
2019-02-20T03:40:22.486Z,1.20
2019-02-20T03:42:52.949Z,0.87
2019-02-20T03:45:23.192Z,1.10
2019-02-20T03:47:54.974Z,1.03
2019-02-20T03:50:27.054Z,0.90
2019-02-20T03:52:56.937Z,1.10
2019-02-20T03:55:26.745Z,1.27
2019-02-20T03:57:59.047Z,1.00
2019-02-20T04:00:29.341Z,0.80
2019-02-20T04:02:59.289Z,1.00
2019-02-20T04:05:29.348Z,1.00
2019-02-20T04:08:00.357Z,1.23
2019-02-20T04:10:30.460Z,1.07
2019-02-20T04:13:00.366Z,1.00
2019-02-20T04:15:32.998Z,0.73
2019-02-20T04:18:03.422Z,1.03
2019-02-20T04:20:33.120Z,1.10
2019-02-20T04:23:03.161Z,0.90
2019-02-20T04:25:33.663Z,0.83
2019-02-20T04:28:04.126Z,0.87
2019-02-20T04:30:33.906Z,0.83
2019-02-20T04:33:03.823Z,0.70
2019-02-20T04:35:34.112Z,0.80
2019-02-20T04:38:04.776Z,0.83
2019-02-20T04:40:35.363Z,0.57
2019-02-20T04:43:05.153Z,1.30
2019-02-20T04:45:35.660Z,0.77
2019-02-20T04:48:05.465Z,0.70
2019-02-20T04:50:35.877Z,0.80
2019-02-20T04:53:05.859Z,0.53
2019-02-20T04:55:35.949Z,0.60
2019-02-20T04:58:15.252Z,0.80
2019-02-20T05:00:46.210Z,0.70
2019-02-20T05:03:18.858Z,0.70
2019-02-20T05:05:49.330Z,0.80
2019-02-20T05:08:19.098Z,0.70
2019-02-20T05:10:50.613Z,0.80
2019-02-20T05:13:21.498Z,0.70
2019-02-20T05:15:51.945Z,0.80
2019-02-20T05:18:23.455Z,0.50
2019-02-20T05:20:53.470Z,0.70
2019-02-20T05:23:23.950Z,0.90
2019-02-20T05:25:56.321Z,0.50
2019-02-20T05:28:26.057Z,0.80
2019-02-20T05:30:57.496Z,0.90
2019-02-20T05:33:27.918Z,0.80
2019-02-20T05:35:57.774Z,0.80
2019-02-20T05:38:28.715Z,0.70
2019-02-20T05:40:59.103Z,0.70
2019-02-20T05:43:29.273Z,0.90
2019-02-20T05:46:01.895Z,0.90
2019-02-20T05:48:33.273Z,0.63
2019-02-20T05:51:03.240Z,0.80
2019-02-20T05:53:33.263Z,0.70
2019-02-20T05:56:03.494Z,0.83
2019-02-20T05:58:33.407Z,0.80
2019-02-20T06:01:03.121Z,0.60
2019-02-20T06:03:33.718Z,0.70
2019-02-20T06:06:03.620Z,0.80
2019-02-20T06:08:33.565Z,0.90
2019-02-20T06:11:13.902Z,0.83
2019-02-20T06:13:35.833Z,0.60
2019-02-20T06:16:05.614Z,0.70
2019-02-20T06:18:36.084Z,0.80
2019-02-20T06:21:08.869Z,0.70
2019-02-20T06:23:39.389Z,0.87
2019-02-20T06:26:09.135Z,0.90
2019-02-20T06:28:39.552Z,1.10
2019-02-20T06:31:10.061Z,0.90
2019-02-20T06:33:46.482Z,1.10
2019-02-20T06:36:17.338Z,1.30
2019-02-20T06:38:50.412Z,0.70
2019-02-20T06:41:20.802Z,0.77
2019-02-20T06:43:50.612Z,1.17
2019-02-20T06:46:20.581Z,1.17
2019-02-20T06:48:51.392Z,0.80
2019-02-20T06:51:22.341Z,1.20
2019-02-20T06:53:51.932Z,0.90
2019-02-20T06:56:22.261Z,1.13
2019-02-20T06:58:53.307Z,1.00
2019-02-20T07:01:24.439Z,0.70
2019-02-20T07:03:55.591Z,0.90
2019-02-20T07:06:45.254Z,0.80
2019-02-20T07:09:26.659Z,0.77
2019-02-20T07:12:18.105Z,1.03
2019-02-20T07:15:01.868Z,1.00
2019-02-20T07:17:45.327Z,1.10
2019-02-20T07:20:34.413Z,1.63
2019-02-20T07:23:08.090Z,1.10
2019-02-20T07:25:55.396Z,1.17
2019-02-20T07:28:47.606Z,1.57
2019-02-20T07:31:19.232Z,1.20
2019-02-20T07:33:49.270Z,1.43
2019-02-20T07:36:19.261Z,1.10
2019-02-20T07:38:49.077Z,1.23
2019-02-20T07:41:19.477Z,1.60
2019-02-20T07:43:49.860Z,1.50
2019-02-20T07:46:20.240Z,1.17
2019-02-20T07:48:50.017Z,1.30
2019-02-20T07:51:20.560Z,1.37
2019-02-20T07:53:50.989Z,1.53
2019-02-20T07:56:21.255Z,1.50
2019-02-20T07:58:52.440Z,1.63
2019-02-20T08:01:25.148Z,1.13
2019-02-20T08:03:55.404Z,1.10
2019-02-20T08:06:26.357Z,1.27
2019-02-20T08:08:56.287Z,0.90
2019-02-20T08:11:26.515Z,1.20
2019-02-20T08:13:56.790Z,1.50
2019-02-20T08:16:26.708Z,1.13
2019-02-20T08:18:57.000Z,0.90
2019-02-20T08:21:27.001Z,1.47
2019-02-20T08:23:57.019Z,1.40
2019-02-20T08:26:27.265Z,1.20
2019-02-20T08:28:57.795Z,1.40
2019-02-20T08:31:28.757Z,1.20
2019-02-20T08:33:58.952Z,1.20
2019-02-20T08:36:29.861Z,1.20
2019-02-20T08:39:00.306Z,1.37
2019-02-20T08:41:30.176Z,1.60
2019-02-20T08:44:00.608Z,1.23
2019-02-20T08:46:31.670Z,1.20
2019-02-20T08:49:01.805Z,1.50
2019-02-20T08:51:33.905Z,1.27
2019-02-20T08:54:04.686Z,1.20
2019-02-20T08:56:34.679Z,1.37
2019-02-20T08:59:07.941Z,1.20
2019-02-20T09:01:37.772Z,1.30
2019-02-20T09:04:09.741Z,1.40
2019-02-20T09:06:39.624Z,1.00
2019-02-20T09:09:11.062Z,1.67
2019-02-20T09:11:41.047Z,1.37
2019-02-20T09:14:13.018Z,1.60
2019-02-20T09:16:44.917Z,1.10
2019-02-20T09:19:14.853Z,1.20
2019-02-20T09:21:45.265Z,1.43
2019-02-20T09:24:15.547Z,1.37
2019-02-20T09:26:45.457Z,1.20
2019-02-20T09:29:16.025Z,1.03
2019-02-20T09:31:46.974Z,1.17
2019-02-20T09:34:16.704Z,1.40
2019-02-20T09:36:46.903Z,1.40
2019-02-20T09:39:30.201Z,1.10
2019-02-20T09:42:00.217Z,1.10
2019-02-20T09:44:31.506Z,1.53
2019-02-20T09:47:02.537Z,1.33
2019-02-20T09:49:34.680Z,1.57
2019-02-20T09:52:05.136Z,1.33
2019-02-20T09:54:35.154Z,1.40
2019-02-20T09:57:05.891Z,1.00
2019-02-20T09:59:37.894Z,1.77
2019-02-20T10:02:12.988Z,1.23
2019-02-20T10:04:43.506Z,1.27
2019-02-20T10:07:13.121Z,1.80
2019-02-20T10:09:43.735Z,1.27
2019-02-20T10:12:14.137Z,1.60
2019-02-20T10:14:43.894Z,2.30
2019-02-20T10:17:15.774Z,1.37
2019-02-20T10:19:50.321Z,1.03
2019-02-20T10:22:25.233Z,1.03
2019-02-20T10:24:56.474Z,1.67
2019-02-20T10:27:27.004Z,1.43
2019-02-20T10:29:57.733Z,1.40
2019-02-20T10:32:29.053Z,1.00
2019-02-20T10:34:59.131Z,1.40
2019-02-20T10:37:30.190Z,1.30
2019-02-20T10:39:59.817Z,1.00
2019-02-20T10:42:29.781Z,1.30
2019-02-20T10:45:00.267Z,1.80
2019-02-20T10:47:32.694Z,1.13
2019-02-20T10:50:06.745Z,1.40
2019-02-20T10:52:36.986Z,1.83
2019-02-20T10:55:07.757Z,1.37
2019-02-20T10:57:37.704Z,1.63
2019-02-20T11:00:23.145Z,1.40
2019-02-20T11:02:44.481Z,1.23
2019-02-20T11:05:14.232Z,1.30
2019-02-20T11:07:45.637Z,1.20
2019-02-20T11:10:15.257Z,1.67
2019-02-20T11:12:45.694Z,1.80
2019-02-20T11:15:15.979Z,1.50
2019-02-20T11:17:47.065Z,1.50
2019-02-20T11:20:19.817Z,1.73
2019-02-20T11:22:50.090Z,1.60
2019-02-20T11:25:20.697Z,1.43
2019-02-20T11:27:50.473Z,1.37
2019-02-20T11:30:21.760Z,1.57
2019-02-20T11:32:52.149Z,1.23
2019-02-20T11:35:22.809Z,1.60
2019-02-20T11:37:53.945Z,1.30
2019-02-20T11:40:24.359Z,1.50
2019-02-20T11:42:55.619Z,1.30
2019-02-20T11:45:25.780Z,1.40
2019-02-20T11:47:55.699Z,2.23
2019-02-20T11:50:26.229Z,1.40
2019-02-20T11:52:57.145Z,1.70
2019-02-20T11:55:27.989Z,1.83
2019-02-20T11:58:00.796Z,1.43
2019-02-20T12:00:30.898Z,1.43
2019-02-20T12:03:01.299Z,1.33
2019-02-20T12:05:31.684Z,1.40
2019-02-20T12:08:02.101Z,1.67
2019-02-20T12:10:32.044Z,1.60
2019-02-20T12:13:02.198Z,1.10
2019-02-20T12:15:32.749Z,1.70
2019-02-20T12:18:03.158Z,1.43
2019-02-20T12:20:32.945Z,1.40
2019-02-20T12:23:03.993Z,1.27
2019-02-20T12:25:35.466Z,2.13
2019-02-20T12:28:05.187Z,1.20
2019-02-20T12:30:35.059Z,1.30
2019-02-20T12:33:05.457Z,1.37
2019-02-20T12:35:35.206Z,1.47
2019-02-20T12:38:05.429Z,1.67
2019-02-20T12:40:34.984Z,1.20
2019-02-20T12:43:05.825Z,1.23
2019-02-20T12:45:36.109Z,1.20
2019-02-20T12:48:06.506Z,1.40
2019-02-20T12:50:36.253Z,1.33
2019-02-20T12:53:05.884Z,1.60
2019-02-20T12:55:35.639Z,1.60
2019-02-20T12:58:06.189Z,2.00
2019-02-20T13:00:37.018Z,1.27
2019-02-20T13:03:06.800Z,1.00
2019-02-20T13:05:36.650Z,1.30
2019-02-20T13:08:06.398Z,1.43
2019-02-20T13:10:36.276Z,1.40
2019-02-20T13:13:06.586Z,1.80
2019-02-20T13:15:36.355Z,1.23
2019-02-20T13:18:06.677Z,1.37
2019-02-20T13:20:37.629Z,1.97
2019-02-20T13:23:07.998Z,0.97
2019-02-20T13:25:39.069Z,1.40
2019-02-20T13:28:11.786Z,1.20
2019-02-20T13:30:42.577Z,1.43
2019-02-20T13:33:26.458Z,1.63
2019-02-20T13:35:57.909Z,1.70
2019-02-20T13:38:28.030Z,2.83
2019-02-20T13:40:57.565Z,1.20
2019-02-20T13:43:31.278Z,1.60
2019-02-20T13:46:03.085Z,1.30
2019-02-20T13:48:35.565Z,1.60
2019-02-20T13:51:05.273Z,1.40
2019-02-20T13:53:37.097Z,1.77
2019-02-20T13:56:07.422Z,1.97
2019-02-20T13:58:37.865Z,1.50
2019-02-20T14:01:08.896Z,1.40
2019-02-20T14:03:41.293Z,1.73
2019-02-20T14:06:12.038Z,1.83
2019-02-20T14:08:43.994Z,1.20
2019-02-20T14:11:14.421Z,1.63
2019-02-20T14:13:44.360Z,1.77
2019-02-20T14:16:14.923Z,1.60
2019-02-20T14:18:45.597Z,1.67
2019-02-20T14:21:17.506Z,1.67
2019-02-20T14:23:47.745Z,1.70
2019-02-20T14:26:20.078Z,1.63
2019-02-20T14:28:50.606Z,1.47
2019-02-20T14:31:20.571Z,1.90
2019-02-20T14:33:50.290Z,1.77
2019-02-20T14:36:20.859Z,1.53
2019-02-20T14:38:52.885Z,1.93
2019-02-20T14:41:24.489Z,1.97
2019-02-20T14:43:54.461Z,2.23
2019-02-20T14:46:24.692Z,1.77
2019-02-20T14:48:54.477Z,1.40
2019-02-20T14:51:25.101Z,2.00
2019-02-20T14:54:02.198Z,1.60
2019-02-20T14:56:48.717Z,1.63
2019-02-20T14:59:21.551Z,2.70
2019-02-20T15:01:51.544Z,1.83
2019-02-20T15:04:21.298Z,2.17
2019-02-20T15:06:51.665Z,1.23
2019-02-20T15:09:21.924Z,1.40
2019-02-20T15:11:51.508Z,1.60
2019-02-20T15:14:22.462Z,2.27
2019-02-20T15:16:57.850Z,2.00
2019-02-20T15:19:31.030Z,1.70
2019-02-20T15:22:01.829Z,2.47
2019-02-20T15:24:31.641Z,1.83
2019-02-20T15:27:06.198Z,2.70
2019-02-20T15:29:46.550Z,3.00
2019-02-20T15:32:17.949Z,2.50
2019-02-20T15:34:49.797Z,1.97
2019-02-20T15:37:21.236Z,2.77
2019-02-20T15:39:54.385Z,4.63
2019-02-20T15:42:26.501Z,2.00
2019-02-20T15:45:02.367Z,1.57
2019-02-20T15:47:33.622Z,1.80
2019-02-20T15:50:05.461Z,1.40
2019-02-20T15:52:35.886Z,1.40
2019-02-20T15:55:06.633Z,1.80
2019-02-20T15:57:38.473Z,1.43
2019-02-20T16:00:15.991Z,2.20
2019-02-20T16:02:53.472Z,2.53
2019-02-20T16:05:27.493Z,1.30
2019-02-20T16:08:01.340Z,2.00
2019-02-20T16:10:31.849Z,1.63
2019-02-20T16:13:01.772Z,1.97
2019-02-20T16:15:31.862Z,1.60
2019-02-20T16:18:05.886Z,1.67
2019-02-20T16:20:36.263Z,2.20
2019-02-20T16:23:07.386Z,1.50
2019-02-20T16:25:44.715Z,1.50
2019-02-20T16:28:15.377Z,2.00
2019-02-20T16:30:45.429Z,1.60
2019-02-20T16:33:15.828Z,1.70
2019-02-20T16:35:45.798Z,1.70
2019-02-20T16:38:16.263Z,1.73
2019-02-20T16:40:46.764Z,1.53
2019-02-20T16:43:19.517Z,1.80
2019-02-20T16:45:49.153Z,1.57
2019-02-20T16:48:20.116Z,1.83
2019-02-20T16:50:50.989Z,1.17
2019-02-20T16:53:20.933Z,1.50
2019-02-20T16:55:52.366Z,1.40
2019-02-20T16:58:22.023Z,1.20
2019-02-20T17:00:53.323Z,0.90
2019-02-20T17:03:23.836Z,1.30
2019-02-20T17:05:54.289Z,1.50
2019-02-20T17:08:26.253Z,1.30
2019-02-20T17:10:56.858Z,1.50
2019-02-20T17:13:27.894Z,1.70
2019-02-20T17:15:59.754Z,1.20
2019-02-20T17:18:32.385Z,1.20
2019-02-20T17:21:03.201Z,1.20
2019-02-20T17:23:34.713Z,1.07
2019-02-20T17:26:04.557Z,1.00
2019-02-20T17:28:34.470Z,2.13
2019-02-20T17:31:04.762Z,1.20
2019-02-20T17:33:35.220Z,1.83
2019-02-20T17:36:05.069Z,1.10
2019-02-20T17:38:37.089Z,1.20
2019-02-20T17:41:07.481Z,1.67
2019-02-20T17:43:40.609Z,1.60
2019-02-20T17:46:11.065Z,1.53
2019-02-20T17:48:43.158Z,1.90
2019-02-20T17:51:14.074Z,1.97
2019-02-20T17:53:44.586Z,1.50
2019-02-20T17:56:20.151Z,1.30
2019-02-20T17:58:50.215Z,1.17
2019-02-20T18:01:20.765Z,1.17
2019-02-20T18:03:51.154Z,1.17
2019-02-20T18:06:21.110Z,1.57
2019-02-20T18:08:51.053Z,1.13
2019-02-20T18:11:21.389Z,1.43
2019-02-20T18:13:51.663Z,1.47
2019-02-20T18:16:22.157Z,1.07
2019-02-20T18:18:52.753Z,1.07
2019-02-20T18:21:23.997Z,0.97
2019-02-20T18:23:54.420Z,1.60
2019-02-20T18:26:25.206Z,0.80
2019-02-20T18:28:56.197Z,1.10
2019-02-20T18:31:26.163Z,1.23
2019-02-20T18:33:56.087Z,0.80
2019-02-20T18:36:26.811Z,1.20
2019-02-20T18:38:59.079Z,1.10
2019-02-20T18:41:30.145Z,0.73
2019-02-20T18:44:00.329Z,0.97
2019-02-20T18:46:31.746Z,1.00
2019-02-20T18:49:02.106Z,0.80
2019-02-20T18:52:16.901Z,0.73
2019-02-20T18:54:21.445Z,1.10
2019-02-20T18:57:01.568Z,1.20
2019-02-20T18:59:31.405Z,1.20
2019-02-20T19:02:01.393Z,1.17
2019-02-20T19:04:32.385Z,1.20
2019-02-20T19:07:08.930Z,1.27
2019-02-20T19:09:39.727Z,1.07
2019-02-20T19:12:28.096Z,1.70
2019-02-20T19:15:17.210Z,1.13
2019-02-20T19:18:04.717Z,1.00
2019-02-20T19:20:41.491Z,1.07
2019-02-20T19:23:29.866Z,0.93
2019-02-20T19:26:06.794Z,0.90
2019-02-20T19:28:44.230Z,0.80
2019-02-20T19:31:23.940Z,1.10
2019-02-20T19:34:18.470Z,1.20
2019-02-20T19:37:06.002Z,1.27
2019-02-20T19:39:39.741Z,0.90
2019-02-20T19:42:27.087Z,1.33
2019-02-20T19:45:19.700Z,0.90
2019-02-20T19:47:54.640Z,1.00
2019-02-20T19:50:37.113Z,1.50
2019-02-20T19:53:26.688Z,1.00
2019-02-20T19:56:17.203Z,0.70
2019-02-20T19:59:04.171Z,1.00
2019-02-20T20:02:14.156Z,1.20
2019-02-20T20:05:02.321Z,1.30
2019-02-20T20:07:48.860Z,0.80
2019-02-20T20:10:40.677Z,0.90
2019-02-20T20:13:38.949Z,0.90
2019-02-20T20:16:37.759Z,1.00
2019-02-20T20:19:14.369Z,0.90
2019-02-20T20:22:06.614Z,1.13
2019-02-20T20:24:58.190Z,1.07
2019-02-20T20:27:52.605Z,0.80
2019-02-20T20:30:39.897Z,1.10
2019-02-20T20:33:24.573Z,1.03
2019-02-20T20:36:09.552Z,1.20
2019-02-20T20:38:52.305Z,1.17
2019-02-20T20:41:37.637Z,1.10
2019-02-20T20:44:29.088Z,1.10
2019-02-20T20:47:21.047Z,0.97
2019-02-20T20:50:10.566Z,0.90
2019-02-20T20:53:05.571Z,1.03
2019-02-20T20:56:03.133Z,1.10
2019-02-20T20:58:51.007Z,1.00
2019-02-20T21:01:48.973Z,1.33
2019-02-20T21:04:47.337Z,1.07
2019-02-20T21:07:29.294Z,1.10
2019-02-20T21:10:36.370Z,1.27
2019-02-20T21:13:20.123Z,1.00
2019-02-20T21:16:07.226Z,1.10
2019-02-20T21:18:45.860Z,0.93
2019-02-20T21:21:23.341Z,1.00
2019-02-20T21:27:33.825Z,0.80
2019-02-20T21:30:32.335Z,1.23
2019-02-20T21:33:27.256Z,0.90
2019-02-20T21:36:04.042Z,1.07
2019-02-20T21:39:12.738Z,1.20
2019-02-20T21:41:46.097Z,1.03
2019-02-20T21:44:30.197Z,0.83
2019-02-20T21:47:07.051Z,0.90
2019-02-20T21:49:42.966Z,1.10
2019-02-20T21:55:13.451Z,1.30
2019-02-20T21:57:48.717Z,0.97
2019-02-20T22:00:31.977Z,1.00
2019-02-20T22:03:30.550Z,1.10
2019-02-20T22:06:05.669Z,1.10
2019-02-20T22:08:52.657Z,1.40
2019-02-20T22:11:41.281Z,1.10
2019-02-20T22:14:22.425Z,1.43
2019-02-20T22:17:02.140Z,1.33
2019-02-20T22:23:20.817Z,1.30
2019-02-20T22:26:12.457Z,1.20
2019-02-20T22:28:57.119Z,0.93
2019-02-20T22:32:03.770Z,1.23
2019-02-20T22:34:38.129Z,1.07
2019-02-20T22:37:39.705Z,0.90
2019-02-20T22:40:14.773Z,1.40
2019-02-20T22:43:10.077Z,1.10
2019-02-20T22:45:57.394Z,0.90
2019-02-20T22:48:49.277Z,0.90
2019-02-20T22:51:32.210Z,1.07
2019-02-20T22:54:23.521Z,1.10
2019-02-20T22:57:15.790Z,1.40
2019-02-20T23:00:14.893Z,0.90
2019-02-20T23:03:06.800Z,1.10
2019-02-20T23:05:51.718Z,0.90
2019-02-20T23:08:24.901Z,0.90
2019-02-20T23:11:09.301Z,1.00
2019-02-20T23:14:10.909Z,1.07
2019-02-20T23:16:42.269Z,1.07
2019-02-20T23:19:14.577Z,1.63
2019-02-20T23:21:44.921Z,0.87
2019-02-20T23:24:16.381Z,1.60
2019-02-20T23:26:46.657Z,1.00
2019-02-20T23:29:17.032Z,1.10
2019-02-20T23:31:47.421Z,1.00
2019-02-20T23:34:17.248Z,1.20
2019-02-20T23:36:48.569Z,1.00
2019-02-20T23:39:18.928Z,1.30
2019-02-20T23:41:48.705Z,1.60
2019-02-20T23:44:18.588Z,1.67
2019-02-20T23:46:48.581Z,1.20
2019-02-20T23:49:19.289Z,1.67
2019-02-20T23:51:49.547Z,1.20
2019-02-20T23:54:19.997Z,1.23
2019-02-20T23:56:49.777Z,1.20
2019-02-20T23:59:20.147Z,1.27
